Time;durP1;ratioP1;P1;durP2;ratioP2;P2;SDS_P1;SDS_P2;PMS_P1;PMS_P2;Temp;Humidity;BMP_temperature;BMP_pressure;BME280_temperature;BME280_humidity;BME280_pressure;Samples;Min_cycle;Max_cycle;Signal;HPM_P1;HPM_P2
2022/12/24 00:00:06;;;;;;;1.27;0.75;;;;;;;;;;4986019;28;20373;-83
2022/12/24 00:02:32;;;;;;;1.95;1.00;;;;;;;;;;4985910;28;20503;-84
2022/12/24 00:04:57;;;;;;;1.98;0.85;;;;;;;;;;4987757;28;20023;-85
2022/12/24 00:07:22;;;;;;;0.70;0.70;;;;;;;;;;4986997;28;20404;-83
2022/12/24 00:09:47;;;;;;;1.50;0.98;;;;;;;;;;4987929;28;20026;-82
2022/12/24 00:12:13;;;;;;;0.93;0.80;;;;;;;;;;4986488;28;20023;-83
2022/12/24 00:14:38;;;;;;;2.08;0.90;;;;;;;;;;4989350;28;20028;-83
2022/12/24 00:17:03;;;;;;;3.00;0.98;;;;;;;;;;4987165;28;20038;-83
2022/12/24 00:19:28;;;;;;;3.88;1.10;;;;;;;;;;4986951;28;20053;-82
2022/12/24 00:21:54;;;;;;;1.17;0.73;;;;;;;;;;4985949;28;20392;-83
2022/12/24 00:24:19;;;;;;;1.55;0.73;;;;;;;;;;4985367;28;20280;-82
2022/12/24 00:26:47;;;;;;;2.90;0.98;;;;;;;;;;4989297;28;20041;-84
2022/12/24 00:29:12;;;;;;;2.38;1.00;;;;;;;;;;4986464;28;20034;-84
2022/12/24 00:31:38;;;;;;;4.57;1.20;;;;;;;;;;4987171;28;20392;-84
2022/12/24 00:34:03;;;;;;;3.15;0.88;;;;;;;;;;4986205;28;20030;-83
2022/12/24 00:36:28;;;;;;;1.52;1.08;;;;;;;;;;4986537;28;20029;-84
2022/12/24 00:38:53;;;;;;;1.57;0.80;;;;;;;;;;4986588;28;20086;-83
2022/12/24 00:41:24;;;;;;;1.83;0.80;;;;;;;;;;4986667;28;20257;-83
2022/12/24 00:43:51;;;;;;;1.75;1.00;;;;;;;;;;4985701;28;20786;-83
2022/12/24 00:46:17;;;;;;;2.40;0.90;;;;;;;;;;4986831;28;20022;-83
2022/12/24 00:48:42;;;;;;;1.45;0.88;;;;;;;;;;4986801;28;20035;-84
2022/12/24 00:51:07;;;;;;;3.40;0.90;;;;;;;;;;4987419;28;20035;-84
2022/12/24 00:53:32;;;;;;;1.58;0.88;;;;;;;;;;4985531;28;20284;-85
2022/12/24 00:55:57;;;;;;;4.10;1.00;;;;;;;;;;4986432;28;20094;-83
2022/12/24 00:58:23;;;;;;;6.83;1.10;;;;;;;;;;4987544;28;20264;-83
2022/12/24 01:00:48;;;;;;;3.63;0.90;;;;;;;;;;4985971;28;20746;-84
2022/12/24 01:03:13;;;;;;;2.17;0.90;;;;;;;;;;4987815;28;20288;-83
2022/12/24 01:05:38;;;;;;;5.80;1.30;;;;;;;;;;4988126;28;20722;-84
2022/12/24 01:08:04;;;;;;;3.05;1.10;;;;;;;;;;4986870;28;20029;-83
2022/12/24 01:10:29;;;;;;;4.38;1.17;;;;;;;;;;4985533;28;20019;-84
2022/12/24 01:12:54;;;;;;;2.90;1.38;;;;;;;;;;4986962;28;20097;-84
2022/12/24 01:15:19;;;;;;;3.63;0.98;;;;;;;;;;4985900;28;20031;-84
2022/12/24 01:17:45;;;;;;;2.10;0.98;;;;;;;;;;4986380;28;20034;-83
2022/12/24 01:20:14;;;;;;;7.70;1.17;;;;;;;;;;4987178;28;20054;-84
2022/12/24 01:22:39;;;;;;;6.57;1.08;;;;;;;;;;4986288;28;20050;-83
2022/12/24 01:25:05;;;;;;;8.85;1.35;;;;;;;;;;4986726;28;20023;-83
2022/12/24 01:27:31;;;;;;;4.68;1.00;;;;;;;;;;4987237;28;20027;-84
2022/12/24 01:29:56;;;;;;;5.18;1.15;;;;;;;;;;4987955;28;20412;-83
2022/12/24 01:32:22;;;;;;;4.37;1.30;;;;;;;;;;4989757;28;20114;-84
2022/12/24 01:34:47;;;;;;;6.10;1.10;;;;;;;;;;4988347;28;20284;-84
2022/12/24 01:37:12;;;;;;;5.87;1.23;;;;;;;;;;4989299;28;20265;-82
2022/12/24 01:39:37;;;;;;;4.80;1.30;;;;;;;;;;4990107;28;20269;-83
2022/12/24 01:45:37;;;;;;;4.57;1.25;;;;;;;;;;4991423;28;20042;-84
2022/12/24 01:48:04;;;;;;;4.03;1.05;;;;;;;;;;4990558;28;20023;-84
2022/12/24 01:50:30;;;;;;;9.73;1.38;;;;;;;;;;4990575;28;20027;-83
2022/12/24 01:52:56;;;;;;;4.50;1.00;;;;;;;;;;4988701;28;20023;-81
2022/12/24 01:55:22;;;;;;;8.32;1.23;;;;;;;;;;4991062;28;20495;-84
2022/12/24 01:57:53;;;;;;;4.95;1.30;;;;;;;;;;4991469;28;20027;-83
2022/12/24 02:00:19;;;;;;;2.95;1.10;;;;;;;;;;4989719;28;20086;-84
2022/12/24 02:02:46;;;;;;;5.78;1.30;;;;;;;;;;4988949;28;20027;-84
2022/12/24 02:05:27;;;;;;;2.47;1.00;;;;;;;;;;4990313;28;20042;-84
2022/12/24 02:07:52;;;;;;;8.32;1.25;;;;;;;;;;4990649;28;20023;-84
2022/12/24 02:10:18;;;;;;;2.00;0.93;;;;;;;;;;4990765;28;20106;-84
2022/12/24 02:12:45;;;;;;;7.57;1.27;;;;;;;;;;4988003;28;20117;-84
2022/12/24 02:15:12;;;;;;;7.80;1.30;;;;;;;;;;4989382;28;20094;-84
2022/12/24 02:18:00;;;;;;;5.50;1.33;;;;;;;;;;4990389;28;20503;-84
2022/12/24 02:20:25;;;;;;;7.88;1.30;;;;;;;;;;4988349;28;20037;-84
2022/12/24 02:23:16;;;;;;;4.67;1.30;;;;;;;;;;4986978;28;20031;-84
2022/12/24 02:26:01;;;;;;;5.32;1.25;;;;;;;;;;4989295;28;20031;-83
2022/12/24 02:28:43;;;;;;;3.83;1.20;;;;;;;;;;4987655;28;20034;-83
2022/12/24 02:31:15;;;;;;;2.47;1.10;;;;;;;;;;4989029;28;20030;-83
2022/12/24 02:33:47;;;;;;;5.75;1.20;;;;;;;;;;4988109;28;20027;-84
2022/12/24 02:36:24;;;;;;;5.05;1.33;;;;;;;;;;4986593;28;20061;-83
2022/12/24 02:39:07;;;;;;;6.57;1.13;;;;;;;;;;4986309;28;20026;-84
2022/12/24 02:44:24;;;;;;;3.63;1.00;;;;;;;;;;4994927;28;20055;-83
2022/12/24 02:46:51;;;;;;;4.32;0.90;;;;;;;;;;4987164;28;20082;-84
2022/12/24 02:49:16;;;;;;;2.05;0.82;;;;;;;;;;4985922;28;20026;-84
2022/12/24 02:51:41;;;;;;;8.32;1.20;;;;;;;;;;4986085;28;20070;-83
2022/12/24 02:54:07;;;;;;;5.60;0.93;;;;;;;;;;4984156;28;20027;-81
2022/12/24 02:56:42;;;;;;;3.90;1.02;;;;;;;;;;4985150;28;20022;-83
2022/12/24 02:59:19;;;;;;;5.20;1.08;;;;;;;;;;4985079;28;20396;-83
2022/12/24 03:02:23;;;;;;;4.25;1.00;;;;;;;;;;4986991;28;20054;-83
2022/12/24 03:05:09;;;;;;;5.22;1.10;;;;;;;;;;4985911;28;20031;-84
2022/12/24 03:07:47;;;;;;;4.05;1.10;;;;;;;;;;4987199;28;20137;-83
2022/12/24 03:10:22;;;;;;;2.53;0.80;;;;;;;;;;4986483;28;20042;-82
2022/12/24 03:12:52;;;;;;;4.07;1.10;;;;;;;;;;4987229;28;20018;-83
2022/12/24 03:15:21;;;;;;;2.45;0.88;;;;;;;;;;4987324;28;20030;-83
2022/12/24 03:17:48;;;;;;;5.00;0.73;;;;;;;;;;4987245;28;20027;-83
2022/12/24 03:20:18;;;;;;;5.32;0.93;;;;;;;;;;4988948;28;20030;-83
2022/12/24 03:22:44;;;;;;;8.52;1.23;;;;;;;;;;4986352;28;20090;-84
2022/12/24 03:25:09;;;;;;;6.70;1.13;;;;;;;;;;4986690;28;20029;-82
2022/12/24 03:27:37;;;;;;;4.13;0.82;;;;;;;;;;4983489;28;20034;-82
2022/12/24 03:30:07;;;;;;;5.43;0.85;;;;;;;;;;4985340;28;20554;-85
2022/12/24 03:32:32;;;;;;;5.82;1.00;;;;;;;;;;4988577;28;20051;-83
2022/12/24 03:34:57;;;;;;;5.28;1.10;;;;;;;;;;4988857;28;20030;-83
2022/12/24 03:37:24;;;;;;;3.53;0.90;;;;;;;;;;4988561;28;20026;-84
2022/12/24 03:39:49;;;;;;;5.63;1.00;;;;;;;;;;4987715;28;20034;-84
2022/12/24 03:42:14;;;;;;;3.53;0.95;;;;;;;;;;4988767;28;20033;-82
2022/12/24 03:44:39;;;;;;;2.67;0.82;;;;;;;;;;4987820;28;20041;-83
2022/12/24 03:47:05;;;;;;;4.43;0.93;;;;;;;;;;4988561;28;20042;-83
2022/12/24 03:49:30;;;;;;;4.30;1.13;;;;;;;;;;4987661;28;20260;-84
2022/12/24 03:51:55;;;;;;;2.17;0.93;;;;;;;;;;4987950;28;20042;-83
2022/12/24 03:54:21;;;;;;;3.78;1.00;;;;;;;;;;4986897;28;20264;-84
2022/12/24 03:56:46;;;;;;;2.55;0.73;;;;;;;;;;4988159;28;20435;-84
2022/12/24 03:59:11;;;;;;;2.83;0.80;;;;;;;;;;4986963;28;20038;-84
2022/12/24 04:01:36;;;;;;;4.60;1.10;;;;;;;;;;4985851;28;20261;-83
2022/12/24 04:04:02;;;;;;;3.45;0.90;;;;;;;;;;4987185;28;20347;-83
2022/12/24 04:06:27;;;;;;;6.22;0.80;;;;;;;;;;4988521;28;20485;-84
2022/12/24 04:08:52;;;;;;;5.27;0.90;;;;;;;;;;4986772;28;20054;-84
2022/12/24 04:11:18;;;;;;;2.10;0.90;;;;;;;;;;4987552;28;20298;-85
2022/12/24 04:13:43;;;;;;;2.83;0.82;;;;;;;;;;4987452;28;20312;-83
2022/12/24 04:16:11;;;;;;;3.05;0.90;;;;;;;;;;4987412;28;20082;-84
2022/12/24 04:18:38;;;;;;;4.40;0.85;;;;;;;;;;4986841;28;20074;-84
2022/12/24 04:21:03;;;;;;;2.85;1.02;;;;;;;;;;4987196;28;20058;-85
2022/12/24 04:23:30;;;;;;;3.67;0.70;;;;;;;;;;4985563;28;20093;-84
2022/12/24 04:25:57;;;;;;;4.63;0.70;;;;;;;;;;4987382;28;20054;-83
2022/12/24 04:28:22;;;;;;;1.95;0.80;;;;;;;;;;4986112;28;20023;-84
2022/12/24 04:30:47;;;;;;;2.37;0.70;;;;;;;;;;4987814;28;20066;-83
2022/12/24 04:33:13;;;;;;;7.10;1.43;;;;;;;;;;4986654;28;20265;-82
2022/12/24 04:35:40;;;;;;;2.43;0.77;;;;;;;;;;4986414;28;20264;-83
2022/12/24 04:38:05;;;;;;;4.22;1.00;;;;;;;;;;4985726;28;20265;-84
2022/12/24 04:40:31;;;;;;;2.30;0.80;;;;;;;;;;4988297;28;20027;-84
2022/12/24 04:42:56;;;;;;;3.83;0.80;;;;;;;;;;4987045;28;20125;-84
2022/12/24 04:45:24;;;;;;;4.03;1.00;;;;;;;;;;4989586;28;20034;-84
2022/12/24 04:47:49;;;;;;;4.25;0.82;;;;;;;;;;4988114;28;20284;-85
2022/12/24 04:50:14;;;;;;;1.83;0.63;;;;;;;;;;4988038;28;20492;-85
2022/12/24 04:52:39;;;;;;;2.45;0.90;;;;;;;;;;4986908;28;20268;-83
2022/12/24 04:55:05;;;;;;;5.10;1.00;;;;;;;;;;4985986;28;20041;-84
2022/12/24 04:57:32;;;;;;;3.97;0.85;;;;;;;;;;4986874;28;20634;-84
2022/12/24 04:59:57;;;;;;;5.18;0.90;;;;;;;;;;4986166;28;20022;-82
2022/12/24 05:02:23;;;;;;;3.45;1.00;;;;;;;;;;4987520;28;20027;-84
2022/12/24 05:04:48;;;;;;;3.80;1.00;;;;;;;;;;4991556;28;20039;-83
2022/12/24 05:07:13;;;;;;;5.23;1.10;;;;;;;;;;4991256;28;20805;-82
2022/12/24 05:09:38;;;;;;;3.97;0.60;;;;;;;;;;4991394;28;20347;-85
2022/12/24 05:12:04;;;;;;;5.15;1.10;;;;;;;;;;4991018;28;20022;-83
2022/12/24 05:14:29;;;;;;;2.35;0.95;;;;;;;;;;4989891;28;20007;-83
2022/12/24 05:16:54;;;;;;;2.33;0.83;;;;;;;;;;4989374;28;20046;-82
2022/12/24 05:19:19;;;;;;;3.90;1.20;;;;;;;;;;4993199;28;20268;-84
2022/12/24 05:26:20;;;;;;;6.32;0.98;;;;;;;;;;4989264;28;20257;-83
2022/12/24 05:27:14;;;;;;;3.95;1.05;;;;;;;;;;4997205;28;20054;-84
2022/12/24 05:29:39;;;;;;;3.67;0.95;;;;;;;;;;4985457;28;20035;-82
2022/12/24 05:32:04;;;;;;;8.65;1.33;;;;;;;;;;4982955;28;20387;-83
2022/12/24 05:34:29;;;;;;;5.93;0.93;;;;;;;;;;4985180;28;20373;-83
2022/12/24 05:36:55;;;;;;;2.37;1.00;;;;;;;;;;4986736;28;20634;-82
2022/12/24 05:39:20;;;;;;;2.97;0.90;;;;;;;;;;4987627;28;20297;-84
2022/12/24 05:41:48;;;;;;;5.03;1.17;;;;;;;;;;4988285;28;20713;-84
2022/12/24 05:44:15;;;;;;;5.65;1.42;;;;;;;;;;4989150;28;20031;-83
2022/12/24 05:46:40;;;;;;;6.47;0.80;;;;;;;;;;4988270;28;20023;-84
2022/12/24 05:49:05;;;;;;;8.68;1.20;;;;;;;;;;4989728;28;20042;-83
2022/12/24 05:51:31;;;;;;;3.55;0.93;;;;;;;;;;4989122;28;20030;-83
2022/12/24 05:53:56;;;;;;;5.60;0.98;;;;;;;;;;4990614;28;20495;-84
2022/12/24 05:56:23;;;;;;;4.68;0.98;;;;;;;;;;4990505;28;20023;-83
2022/12/24 05:58:50;;;;;;;4.05;0.95;;;;;;;;;;4988846;28;20031;-83
2022/12/24 06:01:16;;;;;;;2.40;0.98;;;;;;;;;;4989646;28;20027;-82
2022/12/24 06:03:42;;;;;;;3.72;0.80;;;;;;;;;;4988239;28;20058;-85
2022/12/24 06:06:10;;;;;;;5.00;1.25;;;;;;;;;;4989582;28;20026;-84
2022/12/24 06:08:37;;;;;;;3.28;1.02;;;;;;;;;;4990303;28;20045;-83
2022/12/24 06:11:05;;;;;;;4.88;1.10;;;;;;;;;;4990704;28;20052;-82
2022/12/24 06:13:30;;;;;;;5.55;1.05;;;;;;;;;;4988904;28;20026;-82
2022/12/24 06:15:57;;;;;;;5.70;1.30;;;;;;;;;;4990019;28;20115;-84
2022/12/24 06:18:23;;;;;;;1.98;0.90;;;;;;;;;;4988253;28;20023;-80
2022/12/24 06:20:58;;;;;;;2.97;0.80;;;;;;;;;;4990372;28;20050;-84
2022/12/24 06:23:24;;;;;;;6.00;1.23;;;;;;;;;;4987922;28;20038;-84
2022/12/24 06:25:50;;;;;;;5.25;0.95;;;;;;;;;;4990123;28;20030;-84
2022/12/24 06:28:16;;;;;;;4.53;1.13;;;;;;;;;;4990939;28;20034;-85
2022/12/24 06:30:46;;;;;;;5.30;1.33;;;;;;;;;;4991215;28;20034;-82
2022/12/24 06:33:12;;;;;;;4.35;0.90;;;;;;;;;;4989632;28;20022;-84
2022/12/24 06:35:37;;;;;;;5.35;1.00;;;;;;;;;;4988606;28;20023;-84
2022/12/24 06:38:02;;;;;;;4.20;1.17;;;;;;;;;;4989392;28;20023;-84
2022/12/24 06:40:28;;;;;;;8.57;1.43;;;;;;;;;;4990305;28;20805;-84
2022/12/24 06:42:53;;;;;;;3.05;0.90;;;;;;;;;;4988324;28;20776;-83
2022/12/24 06:45:18;;;;;;;3.70;0.80;;;;;;;;;;4989829;28;20111;-83
2022/12/24 06:47:44;;;;;;;5.68;1.23;;;;;;;;;;4989811;28;20117;-83
2022/12/24 06:50:09;;;;;;;1.90;0.80;;;;;;;;;;4988318;28;20070;-85
2022/12/24 06:52:35;;;;;;;5.45;1.33;;;;;;;;;;4988560;28;20051;-83
2022/12/24 06:55:00;;;;;;;2.05;0.93;;;;;;;;;;4989973;28;20034;-84
2022/12/24 06:57:25;;;;;;;5.22;0.98;;;;;;;;;;4989804;28;20030;-84
2022/12/24 06:59:50;;;;;;;4.25;0.80;;;;;;;;;;4988918;28;20022;-84
2022/12/24 07:02:16;;;;;;;4.25;0.90;;;;;;;;;;4989982;28;20037;-83
2022/12/24 07:04:41;;;;;;;3.27;0.87;;;;;;;;;;4989411;28;20038;-83
2022/12/24 07:07:06;;;;;;;3.20;0.90;;;;;;;;;;4989251;28;20260;-83
2022/12/24 07:09:31;;;;;;;3.73;1.10;;;;;;;;;;4987292;28;20263;-83
2022/12/24 07:11:57;;;;;;;9.05;1.35;;;;;;;;;;4988466;28;20269;-84
2022/12/24 07:14:22;;;;;;;8.57;1.20;;;;;;;;;;4988320;28;20033;-83
2022/12/24 07:16:48;;;;;;;3.40;1.08;;;;;;;;;;4988438;28;20027;-84
2022/12/24 07:19:13;;;;;;;4.65;1.30;;;;;;;;;;4989366;28;20437;-83
2022/12/24 07:21:39;;;;;;;3.65;0.90;;;;;;;;;;4989315;28;20027;-83
2022/12/24 07:24:04;;;;;;;3.17;1.10;;;;;;;;;;4986537;28;20362;-83
2022/12/24 07:26:29;;;;;;;6.13;1.20;;;;;;;;;;4985620;28;20785;-83
2022/12/24 07:28:55;;;;;;;4.13;1.07;;;;;;;;;;4985435;28;20041;-82
2022/12/24 07:31:20;;;;;;;6.95;1.70;;;;;;;;;;4987550;28;20301;-83
2022/12/24 07:33:48;;;;;;;6.07;1.40;;;;;;;;;;4987883;28;20107;-84
2022/12/24 07:36:20;;;;;;;12.23;1.33;;;;;;;;;;4984375;28;20066;-84
2022/12/24 07:38:48;;;;;;;6.22;1.33;;;;;;;;;;4980127;28;20093;-84
2022/12/24 07:41:13;;;;;;;3.78;1.05;;;;;;;;;;4980670;28;20022;-84
2022/12/24 07:43:39;;;;;;;3.88;1.10;;;;;;;;;;4980374;28;20122;-85
2022/12/24 07:46:04;;;;;;;7.45;1.38;;;;;;;;;;4980073;28;20086;-84
2022/12/24 07:49:10;;;;;;;6.40;1.20;;;;;;;;;;4980135;28;20081;-86
2022/12/24 07:51:36;;;;;;;5.63;1.05;;;;;;;;;;4980111;28;20030;-82
2022/12/24 07:54:03;;;;;;;5.20;1.10;;;;;;;;;;4981055;28;20027;-84
2022/12/24 07:56:28;;;;;;;6.68;1.13;;;;;;;;;;4980842;28;20022;-84
2022/12/24 07:58:53;;;;;;;4.93;1.20;;;;;;;;;;4979942;28;20465;-83
2022/12/24 08:01:19;;;;;;;6.17;1.10;;;;;;;;;;4981730;28;20703;-83
2022/12/24 08:03:44;;;;;;;1.77;0.87;;;;;;;;;;4980224;28;20280;-83
2022/12/24 08:06:10;;;;;;;5.77;1.47;;;;;;;;;;4980563;28;20761;-84
2022/12/24 08:08:36;;;;;;;5.15;1.33;;;;;;;;;;4981030;28;20742;-84
2022/12/24 08:11:03;;;;;;;9.27;1.27;;;;;;;;;;4979271;28;20057;-85
2022/12/24 08:13:29;;;;;;;5.57;1.38;;;;;;;;;;4979262;28;20015;-84
2022/12/24 08:15:54;;;;;;;7.15;1.25;;;;;;;;;;4980857;28;20033;-83
2022/12/24 08:18:20;;;;;;;5.97;0.93;;;;;;;;;;4980457;28;20388;-84
2022/12/24 08:20:45;;;;;;;3.40;1.13;;;;;;;;;;4975839;28;20034;-83
2022/12/24 08:23:10;;;;;;;4.50;1.55;;;;;;;;;;4984359;28;20023;-82
2022/12/24 08:25:36;;;;;;;3.75;1.15;;;;;;;;;;4980579;28;20050;-82
2022/12/24 08:28:02;;;;;;;4.45;1.10;;;;;;;;;;4977055;28;20035;-82
2022/12/24 08:30:27;;;;;;;5.45;1.20;;;;;;;;;;4975795;28;20117;-84
2022/12/24 08:32:53;;;;;;;6.10;1.20;;;;;;;;;;4976310;28;20027;-82
2022/12/24 08:35:18;;;;;;;2.28;0.82;;;;;;;;;;4974543;28;20082;-84
2022/12/24 08:37:44;;;;;;;4.53;0.90;;;;;;;;;;4979623;28;20022;-83
2022/12/24 08:40:10;;;;;;;7.90;1.30;;;;;;;;;;4980041;28;20482;-84
2022/12/24 08:42:35;;;;;;;4.30;1.00;;;;;;;;;;4981693;28;20672;-83
2022/12/24 08:45:00;;;;;;;6.63;1.13;;;;;;;;;;4982501;28;20031;-82
2022/12/24 08:47:26;;;;;;;3.97;1.05;;;;;;;;;;4982458;28;20033;-82
2022/12/24 08:49:51;;;;;;;5.38;1.10;;;;;;;;;;4979979;28;20030;-83
2022/12/24 08:52:16;;;;;;;7.60;1.40;;;;;;;;;;4981124;28;20034;-84
2022/12/24 08:54:41;;;;;;;4.67;1.17;;;;;;;;;;4981430;28;20031;-83
2022/12/24 08:57:06;;;;;;;6.10;1.27;;;;;;;;;;4981615;28;20305;-82
2022/12/24 08:59:32;;;;;;;6.27;1.33;;;;;;;;;;4982419;28;20248;-82
2022/12/24 09:01:57;;;;;;;8.27;1.63;;;;;;;;;;4981025;28;20292;-84
2022/12/24 09:04:22;;;;;;;4.73;1.00;;;;;;;;;;4980551;28;20037;-84
2022/12/24 09:06:47;;;;;;;3.20;1.00;;;;;;;;;;4982219;28;20264;-84
2022/12/24 09:09:13;;;;;;;5.53;1.30;;;;;;;;;;4982093;28;20303;-84
2022/12/24 09:11:38;;;;;;;5.13;1.20;;;;;;;;;;4980941;28;20053;-83
2022/12/24 09:14:03;;;;;;;5.55;1.33;;;;;;;;;;4981094;28;20448;-83
2022/12/24 09:16:28;;;;;;;4.80;1.20;;;;;;;;;;4981135;28;20034;-84
2022/12/24 09:18:55;;;;;;;9.10;1.50;;;;;;;;;;4982102;28;20345;-83
2022/12/24 09:21:20;;;;;;;4.00;0.90;;;;;;;;;;4980965;28;20073;-85
2022/12/24 09:23:47;;;;;;;7.67;0.93;;;;;;;;;;4980645;28;20455;-84
2022/12/24 09:26:16;;;;;;;8.65;1.35;;;;;;;;;;4981202;28;20681;-83
2022/12/24 09:29:05;;;;;;;6.50;1.30;;;;;;;;;;4980192;28;20027;-83
2022/12/24 09:31:31;;;;;;;4.93;1.00;;;;;;;;;;4982116;28;20387;-83
2022/12/24 09:33:56;;;;;;;5.60;1.13;;;;;;;;;;4981512;28;20106;-83
2022/12/24 09:36:21;;;;;;;5.60;1.83;;;;;;;;;;4981543;28;20018;-83
2022/12/24 09:38:47;;;;;;;7.63;1.38;;;;;;;;;;4981586;28;20065;-84
2022/12/24 09:41:34;;;;;;;5.25;1.30;;;;;;;;;;4981558;28;20022;-82
2022/12/24 09:44:10;;;;;;;6.93;1.33;;;;;;;;;;4981235;28;20031;-83
2022/12/24 09:46:41;;;;;;;10.25;1.63;;;;;;;;;;4980653;28;20030;-84
2022/12/24 09:49:15;;;;;;;4.72;1.33;;;;;;;;;;4981404;28;20027;-83
2022/12/24 09:51:50;;;;;;;8.63;1.42;;;;;;;;;;4982249;28;20038;-83
2022/12/24 09:54:28;;;;;;;8.80;1.73;;;;;;;;;;4981900;28;20026;-83
2022/12/24 09:56:59;;;;;;;10.15;1.77;;;;;;;;;;4982220;28;20030;-83
2022/12/24 09:59:37;;;;;;;5.28;1.30;;;;;;;;;;4982035;28;20034;-81
2022/12/24 10:02:10;;;;;;;7.78;1.70;;;;;;;;;;4980402;28;20062;-83
2022/12/24 10:04:35;;;;;;;6.97;1.90;;;;;;;;;;4980741;28;20034;-82
2022/12/24 10:07:17;;;;;;;4.23;1.50;;;;;;;;;;4980371;28;20105;-84
2022/12/24 10:10:08;;;;;;;8.77;1.60;;;;;;;;;;4980721;28;20256;-84
2022/12/24 10:12:42;;;;;;;7.55;1.50;;;;;;;;;;4979287;28;20503;-82
2022/12/24 10:15:18;;;;;;;6.55;1.60;;;;;;;;;;4981220;28;20023;-85
2022/12/24 10:17:51;;;;;;;7.22;1.70;;;;;;;;;;4981049;28;20031;-82
2022/12/24 10:20:32;;;;;;;7.90;1.48;;;;;;;;;;4979161;28;20036;-82
2022/12/24 10:23:31;;;;;;;6.68;1.40;;;;;;;;;;4979762;28;20037;-81
2022/12/24 10:26:18;;;;;;;11.88;2.10;;;;;;;;;;4980384;28;20026;-82
2022/12/24 10:28:50;;;;;;;8.35;1.30;;;;;;;;;;4978808;28;20556;-83
2022/12/24 10:31:21;;;;;;;5.68;1.45;;;;;;;;;;4980664;28;20043;-83
2022/12/24 10:33:54;;;;;;;6.22;1.27;;;;;;;;;;4980920;28;20488;-83
2022/12/24 10:36:30;;;;;;;10.32;1.60;;;;;;;;;;4980903;28;20026;-84
2022/12/24 10:38:56;;;;;;;7.07;1.00;;;;;;;;;;4981379;28;20114;-83
2022/12/24 10:41:25;;;;;;;5.07;1.08;;;;;;;;;;4980806;28;20054;-83
2022/12/24 10:43:50;;;;;;;8.32;1.60;;;;;;;;;;4979409;28;20031;-83
2022/12/24 10:46:22;;;;;;;6.47;1.58;;;;;;;;;;4981018;28;20443;-84
2022/12/24 10:49:02;;;;;;;5.05;1.42;;;;;;;;;;4980911;28;20453;-83
2022/12/24 10:51:46;;;;;;;11.38;1.65;;;;;;;;;;4979252;28;20027;-84
2022/12/24 10:54:14;;;;;;;;;;;;;;;;;;4980742;28;20392;-82
2022/12/24 10:56:42;;;;;;;8.05;1.70;;;;;;;;;;4979005;28;19910;-82
2022/12/24 10:59:30;;;;;;;4.88;1.30;;;;;;;;;;4981071;28;20034;-84
2022/12/24 11:02:00;;;;;;;6.82;1.27;;;;;;;;;;4981597;28;20027;-82
2022/12/24 11:04:31;;;;;;;8.65;1.40;;;;;;;;;;4980484;28;20030;-81
2022/12/24 11:07:05;;;;;;;4.78;1.30;;;;;;;;;;4979797;28;20487;-83
2022/12/24 11:09:38;;;;;;;11.32;2.40;;;;;;;;;;4981227;28;20022;-82
2022/12/24 11:12:17;;;;;;;9.63;1.80;;;;;;;;;;4981331;28;20027;-82
2022/12/24 11:14:42;;;;;;;4.15;1.15;;;;;;;;;;4981110;28;20069;-84
2022/12/24 11:17:19;;;;;;;2.50;0.93;;;;;;;;;;4979538;28;20026;-83
2022/12/24 11:19:47;;;;;;;8.02;1.70;;;;;;;;;;4980973;28;20031;-83
2022/12/24 11:22:26;;;;;;;4.35;1.33;;;;;;;;;;4970492;27;4115464;-83
2022/12/24 11:25:02;;;;;;;6.18;1.33;;;;;;;;;;5095435;28;20070;-84
2022/12/24 11:27:29;;;;;;;4.75;1.45;;;;;;;;;;5078028;28;20032;-83
2022/12/24 11:30:24;;;;;;;10.10;1.80;;;;;;;;;;5096434;28;20028;-83
2022/12/24 11:33:16;;;;;;;4.40;1.20;;;;;;;;;;5095561;28;20440;-83
2022/12/24 11:35:48;;;;;;;3.97;1.17;;;;;;;;;;5095386;28;20032;-83
2022/12/24 11:38:22;;;;;;;6.43;1.25;;;;;;;;;;5094770;28;20458;-84
2022/12/24 11:40:57;;;;;;;6.57;1.27;;;;;;;;;;5075768;28;20086;-82
2022/12/24 11:43:22;;;;;;;8.77;1.58;;;;;;;;;;5075727;28;20085;-83
2022/12/24 11:45:54;;;;;;;3.95;1.05;;;;;;;;;;5094594;28;20078;-82
2022/12/24 11:48:31;;;;;;;3.25;1.38;;;;;;;;;;5094124;28;20440;-82
2022/12/24 11:51:05;;;;;;;6.93;1.40;;;;;;;;;;5094516;28;20088;-82
2022/12/24 11:53:51;;;;;;;;;;;;;;;;;;5093601;28;20397;-83
2022/12/24 11:56:41;;;;;;;5.45;1.25;;;;;;;;;;5095592;28;20343;-83
2022/12/24 11:59:29;;;;;;;3.60;1.00;;;;;;;;;;5095680;28;20031;-83
2022/12/24 12:02:01;;;;;;;7.88;1.50;;;;;;;;;;5095095;28;20028;-82
2022/12/24 12:04:32;;;;;;;4.40;1.10;;;;;;;;;;5095256;28;20253;-83
2022/12/24 12:07:04;;;;;;;5.00;1.08;;;;;;;;;;5095142;28;20047;-82
2022/12/24 12:09:33;;;;;;;3.25;1.15;;;;;;;;;;5095302;28;20028;-83
2022/12/24 12:12:04;;;;;;;4.70;1.10;;;;;;;;;;5095128;28;20032;-83
2022/12/24 12:14:53;;;;;;;5.55;1.02;;;;;;;;;;5076983;28;20024;-83
2022/12/24 12:21:03;;;;;;;3.88;1.08;;;;;;;;;;5095071;28;20082;-85
2022/12/24 12:23:35;;;;;;;7.80;1.00;;;;;;;;;;5095164;28;20024;-83
2022/12/24 12:26:11;;;;;;;3.00;0.93;;;;;;;;;;5094858;28;20385;-83
2022/12/24 12:28:43;;;;;;;2.92;0.73;;;;;;;;;;5095127;28;20081;-83
2022/12/24 12:31:08;;;;;;;4.28;1.05;;;;;;;;;;5094463;28;20046;-83
2022/12/24 12:33:55;;;;;;;2.50;0.90;;;;;;;;;;5082426;28;20418;-82
2022/12/24 12:36:29;;;;;;;4.25;1.30;;;;;;;;;;5082161;28;20032;-83
2022/12/24 12:38:57;;;;;;;5.05;1.00;;;;;;;;;;5081868;28;20041;-83
2022/12/24 12:41:43;;;;;;;2.88;1.00;;;;;;;;;;5081059;28;20487;-84
2022/12/24 12:44:48;;;;;;;3.85;0.95;;;;;;;;;;5081514;28;20500;-83
2022/12/24 12:47:40;;;;;;;7.07;0.98;;;;;;;;;;5063677;28;20024;-82
2022/12/24 12:50:24;;;;;;;4.65;1.20;;;;;;;;;;5063688;28;20032;-83
2022/12/24 12:53:04;;;;;;;6.28;0.90;;;;;;;;;;5062530;28;20477;-83
2022/12/24 12:55:39;;;;;;;4.28;1.20;;;;;;;;;;5081377;28;20115;-84
2022/12/24 12:58:21;;;;;;;3.05;0.80;;;;;;;;;;5063068;28;20051;-83
2022/12/24 13:00:50;;;;;;;3.70;1.10;;;;;;;;;;5079886;28;20021;-83
2022/12/24 13:03:56;;;;;;;5.13;1.20;;;;;;;;;;5079957;28;20028;-84
2022/12/24 13:06:38;;;;;;;5.28;1.10;;;;;;;;;;5063101;28;20024;-84
2022/12/24 13:09:21;;;;;;;3.20;1.38;;;;;;;;;;5080941;28;20028;-84
2022/12/24 13:11:49;;;;;;;3.20;1.25;;;;;;;;;;5062758;28;20439;-83
2022/12/24 13:14:45;;;;;;;3.95;1.25;;;;;;;;;;5080588;28;20031;-84
2022/12/24 13:17:38;;;;;;;5.80;1.50;;;;;;;;;;5080469;28;20493;-84
2022/12/24 13:20:17;;;;;;;6.72;2.03;;;;;;;;;;5062859;28;20024;-84
2022/12/24 13:23:02;;;;;;;2.90;1.10;;;;;;;;;;5081027;28;20051;-83
2022/12/24 13:25:40;;;;;;;1.55;0.85;;;;;;;;;;5080902;28;20070;-83
2022/12/24 13:28:23;;;;;;;2.38;0.98;;;;;;;;;;5081664;28;20374;-83
2022/12/24 13:31:13;;;;;;;4.60;1.20;;;;;;;;;;5063473;28;20024;-84
2022/12/24 13:33:38;;;;;;;3.13;0.85;;;;;;;;;;5081059;28;20322;-82
2022/12/24 13:36:12;;;;;;;3.00;1.23;;;;;;;;;;5081675;28;20114;-83
2022/12/24 13:38:47;;;;;;;3.42;1.38;;;;;;;;;;5062967;28;20059;-84
2022/12/24 13:41:30;;;;;;;5.10;1.10;;;;;;;;;;5062234;28;20094;-83
2022/12/24 13:44:14;;;;;;;5.00;1.73;;;;;;;;;;5061444;28;20111;-83
2022/12/24 13:46:49;;;;;;;4.88;1.60;;;;;;;;;;5080175;28;20035;-84
2022/12/24 13:49:40;;;;;;;7.20;1.27;;;;;;;;;;5080928;28;20078;-82
2022/12/24 13:52:09;;;;;;;4.63;1.20;;;;;;;;;;5081154;28;20017;-84
2022/12/24 13:54:42;;;;;;;4.82;1.50;;;;;;;;;;5080522;28;20027;-83
2022/12/24 13:57:23;;;;;;;7.67;1.23;;;;;;;;;;5080398;28;20029;-83
2022/12/24 13:59:58;;;;;;;6.03;1.35;;;;;;;;;;5080393;28;20027;-83
2022/12/24 14:02:24;;;;;;;5.88;1.27;;;;;;;;;;5080233;28;20373;-82
2022/12/24 14:04:50;;;;;;;4.68;1.13;;;;;;;;;;5079556;28;20028;-82
2022/12/24 14:07:19;;;;;;;6.45;1.42;;;;;;;;;;5061832;28;20044;-83
2022/12/24 14:09:51;;;;;;;6.68;1.40;;;;;;;;;;5061807;28;20024;-83
2022/12/24 14:12:30;;;;;;;5.13;1.17;;;;;;;;;;5060866;28;20016;-83
2022/12/24 14:14:55;;;;;;;3.28;1.20;;;;;;;;;;5077477;28;20556;-82
2022/12/24 14:17:26;;;;;;;3.00;1.30;;;;;;;;;;5078892;28;20060;-83
2022/12/24 14:19:54;;;;;;;4.30;1.23;;;;;;;;;;5060982;28;20409;-83
2022/12/24 14:22:33;;;;;;;2.95;1.00;;;;;;;;;;5077846;28;20059;-82
2022/12/24 14:25:02;;;;;;;5.25;1.13;;;;;;;;;;5077071;28;20025;-81
2022/12/24 14:27:38;;;;;;;7.00;2.45;;;;;;;;;;5077116;28;20030;-83
2022/12/24 14:30:12;;;;;;;4.80;1.00;;;;;;;;;;5078725;28;20370;-82
2022/12/24 14:32:39;;;;;;;2.45;1.15;;;;;;;;;;5059367;28;20024;-83
2022/12/24 14:35:14;;;;;;;4.47;1.15;;;;;;;;;;5077726;28;20035;-83
2022/12/24 14:37:43;;;;;;;3.20;1.17;;;;;;;;;;5059880;28;20111;-83
2022/12/24 14:40:16;;;;;;;3.50;0.85;;;;;;;;;;5078042;28;20496;-82
2022/12/24 14:43:01;;;;;;;5.93;1.27;;;;;;;;;;5077195;28;20064;-82
2022/12/24 14:45:36;;;;;;;3.70;1.08;;;;;;;;;;5077729;28;20520;-83
2022/12/24 14:48:18;;;;;;;6.90;1.52;;;;;;;;;;5077359;28;20062;-82
2022/12/24 14:51:04;;;;;;;4.43;1.02;;;;;;;;;;5077424;28;20020;-83
2022/12/24 14:53:48;;;;;;;3.38;1.00;;;;;;;;;;5076766;28;20017;-83
2022/12/24 14:56:16;;;;;;;4.65;1.13;;;;;;;;;;5076998;28;20025;-82
2022/12/24 14:58:43;;;;;;;3.47;1.02;;;;;;;;;;5058215;28;20405;-82
2022/12/24 15:01:35;;;;;;;3.67;1.10;;;;;;;;;;5076270;28;20021;-83
2022/12/24 15:04:09;;;;;;;3.08;1.05;;;;;;;;;;5074185;28;20076;-83
2022/12/24 15:06:39;;;;;;;4.63;0.95;;;;;;;;;;5076639;28;20115;-83
2022/12/24 15:09:05;;;;;;;3.10;0.98;;;;;;;;;;5057891;28;20028;-82
2022/12/24 15:11:30;;;;;;;2.45;1.23;;;;;;;;;;5076003;28;20028;-83
2022/12/24 15:13:58;;;;;;;4.30;1.05;;;;;;;;;;5077556;28;20391;-82